sensor_id;sensor_type;location;lat;lon;timestamp;P1;durP1;ratioP1;P2;durP2;ratioP2
30466;SDS011;17258;52.560;13.046;2023-07-24T00:08:09;1.50;;;1.40;;
30466;SDS011;17258;52.560;13.046;2023-07-24T00:18:10;2.33;;;1.63;;
30466;SDS011;17258;52.560;13.046;2023-07-24T00:28:11;1.17;;;1.17;;
30466;SDS011;17258;52.560;13.046;2023-07-24T00:38:11;1.43;;;1.30;;
30466;SDS011;17258;52.560;13.046;2023-07-24T00:48:12;1.20;;;1.10;;
30466;SDS011;17258;52.560;13.046;2023-07-24T00:58:13;1.20;;;1.10;;
30466;SDS011;17258;52.560;13.046;2023-07-24T01:08:17;1.00;;;1.00;;
30466;SDS011;17258;52.560;13.046;2023-07-24T01:18:18;1.20;;;1.13;;
30466;SDS011;17258;52.560;13.046;2023-07-24T01:28:22;2.85;;;1.33;;
30466;SDS011;17258;52.560;13.046;2023-07-24T01:38:24;1.33;;;1.00;;
30466;SDS011;17258;52.560;13.046;2023-07-24T01:48:25;1.13;;;1.13;;
30466;SDS011;17258;52.560;13.046;2023-07-24T01:58:26;1.33;;;1.20;;
30466;SDS011;17258;52.560;13.046;2023-07-24T02:08:27;1.53;;;1.43;;
30466;SDS011;17258;52.560;13.046;2023-07-24T02:18:27;2.07;;;1.37;;
30466;SDS011;17258;52.560;13.046;2023-07-24T02:28:28;1.37;;;1.27;;
30466;SDS011;17258;52.560;13.046;2023-07-24T02:38:29;0.90;;;0.90;;
30466;SDS011;17258;52.560;13.046;2023-07-24T02:48:29;2.20;;;1.23;;
30466;SDS011;17258;52.560;13.046;2023-07-24T02:58:30;1.17;;;1.13;;
30466;SDS011;17258;52.560;13.046;2023-07-24T03:08:30;1.03;;;1.03;;
30466;SDS011;17258;52.560;13.046;2023-07-24T03:18:31;1.57;;;1.00;;
30466;SDS011;17258;52.560;13.046;2023-07-24T03:28:32;1.20;;;1.10;;
30466;SDS011;17258;52.560;13.046;2023-07-24T03:38:32;0.80;;;0.80;;
30466;SDS011;17258;52.560;13.046;2023-07-24T03:48:34;3.15;;;0.88;;
30466;SDS011;17258;52.560;13.046;2023-07-24T03:58:37;0.85;;;0.85;;
30466;SDS011;17258;52.560;13.046;2023-07-24T04:08:38;0.82;;;0.60;;
30466;SDS011;17258;52.560;13.046;2023-07-24T04:18:39;0.77;;;0.77;;
30466;SDS011;17258;52.560;13.046;2023-07-24T04:28:40;0.73;;;0.73;;
30466;SDS011;17258;52.560;13.046;2023-07-24T04:38:40;1.20;;;1.20;;
30466;SDS011;17258;52.560;13.046;2023-07-24T04:48:41;0.63;;;0.63;;
30466;SDS011;17258;52.560;13.046;2023-07-24T04:58:42;4.80;;;4.60;;
30466;SDS011;17258;52.560;13.046;2023-07-24T05:08:42;15.00;;;14.20;;
30466;SDS011;17258;52.560;13.046;2023-07-24T05:18:43;6.47;;;6.17;;
30466;SDS011;17258;52.560;13.046;2023-07-24T05:28:44;6.10;;;5.80;;
30466;SDS011;17258;52.560;13.046;2023-07-24T05:38:44;14.10;;;13.40;;
30466;SDS011;17258;52.560;13.046;2023-07-24T05:48:45;8.87;;;8.47;;
30466;SDS011;17258;52.560;13.046;2023-07-24T05:58:45;4.00;;;3.80;;
30466;SDS011;17258;52.560;13.046;2023-07-24T06:08:46;14.10;;;13.40;;
30466;SDS011;17258;52.560;13.046;2023-07-24T06:18:47;14.10;;;13.40;;
30466;SDS011;17258;52.560;13.046;2023-07-24T06:28:48;10.53;;;10.03;;
30466;SDS011;17258;52.560;13.046;2023-07-24T06:38:48;3.33;;;3.10;;
30466;SDS011;17258;52.560;13.046;2023-07-24T06:48:49;3.27;;;3.10;;
30466;SDS011;17258;52.560;13.046;2023-07-24T06:58:50;3.87;;;3.67;;
30466;SDS011;17258;52.560;13.046;2023-07-24T07:08:50;5.23;;;4.93;;
30466;SDS011;17258;52.560;13.046;2023-07-24T07:18:51;5.80;;;5.50;;
30466;SDS011;17258;52.560;13.046;2023-07-24T07:28:51;11.40;;;10.83;;
30466;SDS011;17258;52.560;13.046;2023-07-24T07:38:52;14.93;;;14.13;;
30466;SDS011;17258;52.560;13.046;2023-07-24T07:48:53;15.10;;;14.30;;
30466;SDS011;17258;52.560;13.046;2023-07-24T07:58:54;14.43;;;13.73;;
30466;SDS011;17258;52.560;13.046;2023-07-24T08:08:54;14.43;;;13.60;;
30466;SDS011;17258;52.560;13.046;2023-07-24T08:18:55;15.30;;;14.50;;
30466;SDS011;17258;52.560;13.046;2023-07-24T08:28:55;15.43;;;14.63;;
30466;SDS011;17258;52.560;13.046;2023-07-24T08:38:56;15.00;;;14.20;;
30466;SDS011;17258;52.560;13.046;2023-07-24T08:48:57;15.50;;;14.60;;
30466;SDS011;17258;52.560;13.046;2023-07-24T08:58:57;15.50;;;14.70;;
30466;SDS011;17258;52.560;13.046;2023-07-24T09:08:58;16.03;;;15.13;;
30466;SDS011;17258;52.560;13.046;2023-07-24T09:18:59;15.83;;;14.97;;
30466;SDS011;17258;52.560;13.046;2023-07-24T09:28:59;16.17;;;15.27;;
30466;SDS011;17258;52.560;13.046;2023-07-24T09:39:00;16.20;;;15.20;;
30466;SDS011;17258;52.560;13.046;2023-07-24T09:49:03;17.05;;;16.05;;
30466;SDS011;17258;52.560;13.046;2023-07-24T09:59:04;17.25;;;15.85;;
30466;SDS011;17258;52.560;13.046;2023-07-24T10:09:06;14.73;;;13.93;;
30466;SDS011;17258;52.560;13.046;2023-07-24T10:19:14;18.02;;;16.92;;
30466;SDS011;17258;52.560;13.046;2023-07-24T10:29:15;19.13;;;17.92;;
30466;SDS011;17258;52.560;13.046;2023-07-24T10:39:19;17.83;;;16.63;;
30466;SDS011;17258;52.560;13.046;2023-07-24T10:49:22;19.58;;;18.15;;
30466;SDS011;17258;52.560;13.046;2023-07-24T10:59:34;19.00;;;17.67;;
30466;SDS011;17258;52.560;13.046;2023-07-24T11:09:39;19.15;;;17.95;;
30466;SDS011;17258;52.560;13.046;2023-07-24T11:19:40;19.48;;;18.17;;
30466;SDS011;17258;52.560;13.046;2023-07-24T11:29:46;18.87;;;17.63;;
30466;SDS011;17258;52.560;13.046;2023-07-24T11:39:59;5.00;;;3.10;;
30466;SDS011;17258;52.560;13.046;2023-07-24T11:50:04;3.25;;;2.95;;
30466;SDS011;17258;52.560;13.046;2023-07-24T12:00:16;3.83;;;3.42;;
30466;SDS011;17258;52.560;13.046;2023-07-24T12:10:25;12.02;;;11.38;;
30466;SDS011;17258;52.560;13.046;2023-07-24T12:20:28;8.95;;;8.38;;
30466;SDS011;17258;52.560;13.046;2023-07-24T12:30:29;8.43;;;8.02;;
30466;SDS011;17258;52.560;13.046;2023-07-24T12:40:30;9.53;;;9.03;;
30466;SDS011;17258;52.560;13.046;2023-07-24T12:50:30;12.57;;;11.87;;
30466;SDS011;17258;52.560;13.046;2023-07-24T13:00:31;13.17;;;12.43;;
30466;SDS011;17258;52.560;13.046;2023-07-24T13:10:31;13.77;;;12.97;;
30466;SDS011;17258;52.560;13.046;2023-07-24T13:20:32;14.17;;;13.47;;
30466;SDS011;17258;52.560;13.046;2023-07-24T13:30:33;16.07;;;14.97;;
30466;SDS011;17258;52.560;13.046;2023-07-24T13:40:34;16.50;;;15.50;;
30466;SDS011;17258;52.560;13.046;2023-07-24T13:50:35;17.13;;;15.45;;
30466;SDS011;17258;52.560;13.046;2023-07-24T14:00:36;21.60;;;15.80;;
30466;SDS011;17258;52.560;13.046;2023-07-24T14:10:36;17.13;;;16.03;;
30466;SDS011;17258;52.560;13.046;2023-07-24T14:20:37;7.50;;;7.10;;
30466;SDS011;17258;52.560;13.046;2023-07-24T14:30:40;3.38;;;3.17;;
30466;SDS011;17258;52.560;13.046;2023-07-24T14:40:40;6.13;;;5.63;;
30466;SDS011;17258;52.560;13.046;2023-07-24T14:50:41;10.37;;;9.87;;
30466;SDS011;17258;52.560;13.046;2023-07-24T15:00:42;8.93;;;8.37;;
30466;SDS011;17258;52.560;13.046;2023-07-24T15:10:42;7.70;;;7.30;;
30466;SDS011;17258;52.560;13.046;2023-07-24T15:20:43;7.78;;;7.35;;
30466;SDS011;17258;52.560;13.046;2023-07-24T15:30:44;6.87;;;6.53;;
30466;SDS011;17258;52.560;13.046;2023-07-24T15:40:45;7.37;;;6.97;;
30466;SDS011;17258;52.560;13.046;2023-07-24T15:50:45;9.68;;;9.18;;
30466;SDS011;17258;52.560;13.046;2023-07-24T16:00:46;11.20;;;10.55;;
30466;SDS011;17258;52.560;13.046;2023-07-24T16:10:47;3.93;;;3.73;;
30466;SDS011;17258;52.560;13.046;2023-07-24T16:20:47;10.50;;;9.90;;
30466;SDS011;17258;52.560;13.046;2023-07-24T16:30:48;1.23;;;1.10;;
30466;SDS011;17258;52.560;13.046;2023-07-24T16:40:49;1.43;;;1.00;;
30466;SDS011;17258;52.560;13.046;2023-07-24T16:50:51;0.73;;;0.73;;
30466;SDS011;17258;52.560;13.046;2023-07-24T17:00:51;0.70;;;0.70;;
30466;SDS011;17258;52.560;13.046;2023-07-24T17:10:52;1.20;;;1.20;;
30466;SDS011;17258;52.560;13.046;2023-07-24T17:20:53;1.73;;;1.63;;
30466;SDS011;17258;52.560;13.046;2023-07-24T17:30:53;3.30;;;1.17;;
30466;SDS011;17258;52.560;13.046;2023-07-24T17:40:54;1.60;;;1.10;;
30466;SDS011;17258;52.560;13.046;2023-07-24T17:50:55;1.25;;;1.20;;
30466;SDS011;17258;52.560;13.046;2023-07-24T18:00:57;2.72;;;1.58;;
30466;SDS011;17258;52.560;13.046;2023-07-24T18:10:57;1.67;;;1.53;;
30466;SDS011;17258;52.560;13.046;2023-07-24T18:20:58;1.60;;;1.43;;
30466;SDS011;17258;52.560;13.046;2023-07-24T18:31:02;1.08;;;1.05;;
30466;SDS011;17258;52.560;13.046;2023-07-24T18:41:04;1.45;;;1.35;;
30466;SDS011;17258;52.560;13.046;2023-07-24T18:51:04;1.53;;;1.43;;
30466;SDS011;17258;52.560;13.046;2023-07-24T19:01:05;1.57;;;1.43;;
30466;SDS011;17258;52.560;13.046;2023-07-24T19:11:06;1.80;;;1.30;;
30466;SDS011;17258;52.560;13.046;2023-07-24T19:21:06;1.50;;;1.40;;
30466;SDS011;17258;52.560;13.046;2023-07-24T19:31:07;1.60;;;1.50;;
30466;SDS011;17258;52.560;13.046;2023-07-24T19:41:07;1.37;;;1.27;;
30466;SDS011;17258;52.560;13.046;2023-07-24T19:51:08;1.53;;;1.43;;
30466;SDS011;17258;52.560;13.046;2023-07-24T20:01:09;1.43;;;1.33;;
30466;SDS011;17258;52.560;13.046;2023-07-24T20:11:10;1.65;;;1.55;;
30466;SDS011;17258;52.560;13.046;2023-07-24T20:21:11;2.00;;;1.63;;
30466;SDS011;17258;52.560;13.046;2023-07-24T20:31:11;1.90;;;1.40;;
30466;SDS011;17258;52.560;13.046;2023-07-24T20:41:12;2.10;;;1.63;;
30466;SDS011;17258;52.560;13.046;2023-07-24T20:51:14;1.73;;;1.60;;
30466;SDS011;17258;52.560;13.046;2023-07-24T21:01:18;2.22;;;1.67;;
30466;SDS011;17258;52.560;13.046;2023-07-24T21:11:22;2.20;;;1.42;;
30466;SDS011;17258;52.560;13.046;2023-07-24T21:21:23;1.70;;;1.37;;
30466;SDS011;17258;52.560;13.046;2023-07-24T21:31:24;1.50;;;1.40;;
30466;SDS011;17258;52.560;13.046;2023-07-24T21:41:24;2.28;;;1.55;;
30466;SDS011;17258;52.560;13.046;2023-07-24T21:51:25;2.30;;;1.90;;
30466;SDS011;17258;52.560;13.046;2023-07-24T22:01:26;1.80;;;1.60;;
30466;SDS011;17258;52.560;13.046;2023-07-24T22:11:26;2.30;;;1.63;;
30466;SDS011;17258;52.560;13.046;2023-07-24T22:21:28;2.92;;;1.20;;
30466;SDS011;17258;52.560;13.046;2023-07-24T22:31:28;1.90;;;1.70;;
30466;SDS011;17258;52.560;13.046;2023-07-24T22:41:29;3.73;;;2.20;;
30466;SDS011;17258;52.560;13.046;2023-07-24T22:51:29;1.87;;;1.00;;
30466;SDS011;17258;52.560;13.046;2023-07-24T23:01:31;1.40;;;1.30;;
30466;SDS011;17258;52.560;13.046;2023-07-24T23:11:32;1.52;;;1.42;;
30466;SDS011;17258;52.560;13.046;2023-07-24T23:21:33;1.40;;;1.30;;
30466;SDS011;17258;52.560;13.046;2023-07-24T23:31:33;1.43;;;1.33;;
30466;SDS011;17258;52.560;13.046;2023-07-24T23:41:34;1.60;;;1.50;;
30466;SDS011;17258;52.560;13.046;2023-07-24T23:51:35;3.90;;;1.75;;
